sensor_id;sensor_type;location;lat;lon;timestamp;pressure;altitude;pressure_sealevel;temperature;humidity
38163;BME280;23977;53.078;18.248;2024-01-11T02:15:27;102157.94;;;-2.61;100.00
38163;BME280;23977;53.078;18.248;2024-01-11T02:17:56;102290.06;;;-1.64;100.00
38163;BME280;23977;53.078;18.248;2024-01-11T02:20:24;102287.41;;;-1.62;100.00
38163;BME280;23977;53.078;18.248;2024-01-11T02:23:08;102078.47;;;-2.77;100.00
38163;BME280;23977;53.078;18.248;2024-01-11T02:25:53;102160.16;;;-2.47;100.00
38163;BME280;23977;53.078;18.248;2024-01-11T02:28:35;102140.50;;;-2.58;100.00
38163;BME280;23977;53.078;18.248;2024-01-11T02:31:13;102208.69;;;-2.08;100.00
38163;BME280;23977;53.078;18.248;2024-01-11T02:33:44;102198.22;;;-1.77;100.00
38163;BME280;23977;53.078;18.248;2024-01-11T02:36:24;102201.06;;;-1.84;100.00
38163;BME280;23977;53.078;18.248;2024-01-11T02:38:53;102149.50;;;-2.06;100.00
38163;BME280;23977;53.078;18.248;2024-01-11T02:41:28;102075.00;;;-2.46;100.00
38163;BME280;23977;53.078;18.248;2024-01-11T02:43:55;102191.09;;;-1.72;100.00
38163;BME280;23977;53.078;18.248;2024-01-11T02:46:40;102176.84;;;-1.90;100.00
38163;BME280;23977;53.078;18.248;2024-01-11T02:49:27;102270.91;;;-1.33;100.00
38163;BME280;23977;53.078;18.248;2024-01-11T02:52:03;102038.13;;;-2.64;100.00
38163;BME280;23977;53.078;18.248;2024-01-11T02:54:32;102123.94;;;-2.25;100.00
38163;BME280;23977;53.078;18.248;2024-01-11T02:57:14;102109.66;;;-2.11;100.00
38163;BME280;23977;53.078;18.248;2024-01-11T02:59:57;102154.88;;;-1.82;100.00
38163;BME280;23977;53.078;18.248;2024-01-11T03:02:27;102095.53;;;-2.04;100.00
38163;BME280;23977;53.078;18.248;2024-01-11T03:05:00;102015.69;;;-2.38;100.00
38163;BME280;23977;53.078;18.248;2024-01-11T03:07:42;101980.53;;;-2.54;100.00
38163;BME280;23977;53.078;18.248;2024-01-11T03:10:20;102113.13;;;-1.82;100.00
38163;BME280;23977;53.078;18.248;2024-01-11T03:12:48;102062.00;;;-2.16;100.00
38163;BME280;23977;53.078;18.248;2024-01-11T03:15:30;101968.22;;;-2.49;100.00
38163;BME280;23977;53.078;18.248;2024-01-11T03:18:01;102096.47;;;-1.78;100.00
38163;BME280;23977;53.078;18.248;2024-01-11T03:20:50;101961.38;;;-2.53;100.00
38163;BME280;23977;53.078;18.248;2024-01-11T03:23:21;102109.03;;;-1.61;100.00
38163;BME280;23977;53.078;18.248;2024-01-11T03:25:52;102115.13;;;-1.62;100.00
38163;BME280;23977;53.078;18.248;2024-01-11T03:28:37;102029.50;;;-2.06;100.00
38163;BME280;23977;53.078;18.248;2024-01-11T03:31:15;102098.63;;;-1.63;100.00
38163;BME280;23977;53.078;18.248;2024-01-11T03:33:49;101970.31;;;-2.32;100.00
38163;BME280;23977;53.078;18.248;2024-01-11T03:36:31;102186.06;;;-0.93;100.00
38163;BME280;23977;53.078;18.248;2024-01-11T03:39:06;102001.25;;;-2.21;100.00
38163;BME280;23977;53.078;18.248;2024-01-11T03:42:19;102008.09;;;-1.89;100.00
38163;BME280;23977;53.078;18.248;2024-01-11T03:45:49;102028.34;;;-1.69;100.00
38163;BME280;23977;53.078;18.248;2024-01-11T03:48:52;102089.59;;;-1.26;100.00
38163;BME280;23977;53.078;18.248;2024-01-11T03:51:36;101949.72;;;-2.13;100.00
38163;BME280;23977;53.078;18.248;2024-01-11T03:54:54;101971.53;;;-1.88;100.00
38163;BME280;23977;53.078;18.248;2024-01-11T03:57:37;102034.66;;;-1.50;100.00
38163;BME280;23977;53.078;18.248;2024-01-11T04:00:17;101878.94;;;-2.28;100.00
38163;BME280;23977;53.078;18.248;2024-01-11T04:07:57;102028.31;;;-1.16;100.00
38163;BME280;23977;53.078;18.248;2024-01-11T04:10:36;102107.59;;;-0.66;100.00
38163;BME280;23977;53.078;18.248;2024-01-11T04:13:18;102041.50;;;-0.95;100.00
38163;BME280;23977;53.078;18.248;2024-01-11T04:16:09;102099.09;;;-0.48;100.00
38163;BME280;23977;53.078;18.248;2024-01-11T04:18:56;101995.72;;;-1.05;100.00
38163;BME280;23977;53.078;18.248;2024-01-11T04:21:39;101998.50;;;-0.85;100.00
38163;BME280;23977;53.078;18.248;2024-01-11T04:24:22;101901.56;;;-1.51;100.00
38163;BME280;23977;53.078;18.248;2024-01-11T04:27:30;101986.41;;;-1.13;100.00
38163;BME280;23977;53.078;18.248;2024-01-11T04:30:16;101845.50;;;-1.90;100.00
38163;BME280;23977;53.078;18.248;2024-01-11T04:35:21;101884.00;;;-1.46;100.00
38163;BME280;23977;53.078;18.248;2024-01-11T04:37:53;101989.88;;;-0.88;100.00
38163;BME280;23977;53.078;18.248;2024-01-11T04:40:21;101967.56;;;-0.97;100.00
38163;BME280;23977;53.078;18.248;2024-01-11T04:42:58;101879.50;;;-1.42;100.00
38163;BME280;23977;53.078;18.248;2024-01-11T04:45:26;101857.66;;;-1.40;100.00
38163;BME280;23977;53.078;18.248;2024-01-11T04:48:12;102030.88;;;-0.42;100.00
38163;BME280;23977;53.078;18.248;2024-01-11T04:51:23;101942.22;;;-0.95;100.00
38163;BME280;23977;53.078;18.248;2024-01-11T04:54:36;101896.00;;;-1.42;100.00
38163;BME280;23977;53.078;18.248;2024-01-11T04:57:24;101949.38;;;-1.00;100.00
38163;BME280;23977;53.078;18.248;2024-01-11T05:46:26;102082.75;;;0.39;100.00
38163;BME280;23977;53.078;18.248;2024-01-11T05:48:55;101868.66;;;-0.84;100.00
38163;BME280;23977;53.078;18.248;2024-01-11T05:55:04;101974.25;;;0.02;100.00
38163;BME280;23977;53.078;18.248;2024-01-11T05:57:32;102022.50;;;0.16;100.00
38163;BME280;23977;53.078;18.248;2024-01-11T06:00:00;101922.88;;;-0.22;100.00
38163;BME280;23977;53.078;18.248;2024-01-11T06:02:37;102041.25;;;0.50;100.00
38163;BME280;23977;53.078;18.248;2024-01-11T06:05:04;102035.16;;;0.49;100.00
38163;BME280;23977;53.078;18.248;2024-01-11T06:07:35;101990.75;;;0.26;100.00
38163;BME280;23977;53.078;18.248;2024-01-11T06:10:01;101917.16;;;-0.31;100.00
38163;BME280;23977;53.078;18.248;2024-01-11T06:12:30;101997.88;;;0.22;100.00
38163;BME280;23977;53.078;18.248;2024-01-11T06:14:56;101954.59;;;-0.09;100.00
38163;BME280;23977;53.078;18.248;2024-01-11T06:17:24;102043.50;;;0.59;100.00
38163;BME280;23977;53.078;18.248;2024-01-11T06:19:51;101917.19;;;-0.11;100.00
38163;BME280;23977;53.078;18.248;2024-01-11T06:22:21;101862.41;;;-0.58;100.00
38163;BME280;23977;53.078;18.248;2024-01-11T06:24:48;101959.09;;;0.10;100.00
38163;BME280;23977;53.078;18.248;2024-01-11T06:27:15;101874.09;;;-0.45;100.00
38163;BME280;23977;53.078;18.248;2024-01-11T06:29:41;102028.84;;;0.55;100.00
38163;BME280;23977;53.078;18.248;2024-01-11T06:32:09;101925.88;;;-0.10;100.00
38163;BME280;23977;53.078;18.248;2024-01-11T06:34:35;101929.16;;;-0.05;100.00
38163;BME280;23977;53.078;18.248;2024-01-11T06:37:03;101927.34;;;-0.03;100.00
38163;BME280;23977;53.078;18.248;2024-01-11T06:39:29;102052.06;;;0.63;100.00
38163;BME280;23977;53.078;18.248;2024-01-11T06:41:57;102013.78;;;0.38;100.00
38163;BME280;23977;53.078;18.248;2024-01-11T06:44:23;101952.97;;;0.31;100.00
38163;BME280;23977;53.078;18.248;2024-01-11T06:46:50;102035.03;;;0.73;100.00
38163;BME280;23977;53.078;18.248;2024-01-11T06:49:16;101984.09;;;0.39;100.00
38163;BME280;23977;53.078;18.248;2024-01-11T06:51:45;101922.66;;;-0.17;100.00
38163;BME280;23977;53.078;18.248;2024-01-11T06:54:12;102035.25;;;0.68;100.00
38163;BME280;23977;53.078;18.248;2024-01-11T06:56:39;101969.75;;;0.48;100.00
38163;BME280;23977;53.078;18.248;2024-01-11T06:59:05;101939.28;;;0.25;100.00
38163;BME280;23977;53.078;18.248;2024-01-11T07:01:34;101950.69;;;0.24;100.00
38163;BME280;23977;53.078;18.248;2024-01-11T07:04:01;101991.88;;;0.61;100.00
38163;BME280;23977;53.078;18.248;2024-01-11T07:06:28;102043.44;;;0.81;100.00
38163;BME280;23977;53.078;18.248;2024-01-11T07:08:55;102032.63;;;0.89;100.00
38163;BME280;23977;53.078;18.248;2024-01-11T07:11:22;101921.88;;;0.24;100.00
38163;BME280;23977;53.078;18.248;2024-01-11T07:13:49;101996.63;;;0.73;100.00
38163;BME280;23977;53.078;18.248;2024-01-11T07:16:16;101997.53;;;0.52;100.00
38163;BME280;23977;53.078;18.248;2024-01-11T07:18:43;101913.03;;;0.06;100.00
38163;BME280;23977;53.078;18.248;2024-01-11T07:21:09;101901.66;;;0.07;100.00
38163;BME280;23977;53.078;18.248;2024-01-11T07:23:38;101983.50;;;0.53;100.00
38163;BME280;23977;53.078;18.248;2024-01-11T07:26:05;101919.88;;;0.30;100.00
38163;BME280;23977;53.078;18.248;2024-01-11T07:28:32;101920.25;;;0.21;100.00
38163;BME280;23977;53.078;18.248;2024-01-11T07:30:59;101946.19;;;0.68;100.00
38163;BME280;23977;53.078;18.248;2024-01-11T07:33:26;101992.41;;;0.90;100.00
38163;BME280;23977;53.078;18.248;2024-01-11T07:35:55;101866.03;;;0.03;100.00
38163;BME280;23977;53.078;18.248;2024-01-11T07:38:22;101978.38;;;0.91;100.00
38163;BME280;23977;53.078;18.248;2024-01-11T07:40:49;102004.66;;;1.29;100.00
38163;BME280;23977;53.078;18.248;2024-01-11T07:43:15;101854.94;;;0.39;100.00
38163;BME280;23977;53.078;18.248;2024-01-11T07:45:57;101913.66;;;0.53;100.00
38163;BME280;23977;53.078;18.248;2024-01-11T07:48:24;101911.78;;;0.35;100.00
38163;BME280;23977;53.078;18.248;2024-01-11T07:50:50;101994.06;;;0.72;100.00
38163;BME280;23977;53.078;18.248;2024-01-11T07:53:19;101949.75;;;0.86;100.00
38163;BME280;23977;53.078;18.248;2024-01-11T07:55:48;101929.91;;;0.81;100.00
38163;BME280;23977;53.078;18.248;2024-01-11T07:58:43;102019.78;;;1.03;100.00
38163;BME280;23977;53.078;18.248;2024-01-11T08:01:13;102018.72;;;1.07;100.00
38163;BME280;23977;53.078;18.248;2024-01-11T08:11:30;102018.22;;;1.39;100.00
38163;BME280;23977;53.078;18.248;2024-01-11T08:15:18;102011.19;;;1.39;100.00
38163;BME280;23977;53.078;18.248;2024-01-11T08:18:01;101910.34;;;0.69;100.00
38163;BME280;23977;53.078;18.248;2024-01-11T08:20:27;101895.16;;;0.57;100.00
38163;BME280;23977;53.078;18.248;2024-01-11T08:22:58;102032.78;;;1.65;100.00
38163;BME280;23977;53.078;18.248;2024-01-11T08:25:25;101943.97;;;0.99;100.00
38163;BME280;23977;53.078;18.248;2024-01-11T08:27:54;101952.53;;;1.02;100.00
38163;BME280;23977;53.078;18.248;2024-01-11T08:30:20;101949.66;;;1.08;100.00
38163;BME280;23977;53.078;18.248;2024-01-11T08:32:49;101901.72;;;0.86;100.00
38163;BME280;23977;53.078;18.248;2024-01-11T08:35:17;101920.28;;;0.81;100.00
38163;BME280;23977;53.078;18.248;2024-01-11T08:37:46;102011.31;;;1.36;100.00
38163;BME280;23977;53.078;18.248;2024-01-11T08:40:14;101987.78;;;1.16;100.00
38163;BME280;23977;53.078;18.248;2024-01-11T08:42:42;102016.88;;;1.30;100.00
38163;BME280;23977;53.078;18.248;2024-01-11T08:45:09;101926.50;;;0.79;100.00
38163;BME280;23977;53.078;18.248;2024-01-11T08:47:37;101990.94;;;1.62;100.00
38163;BME280;23977;53.078;18.248;2024-01-11T08:50:04;101961.69;;;1.13;100.00
38163;BME280;23977;53.078;18.248;2024-01-11T08:52:35;101939.72;;;1.34;100.00
38163;BME280;23977;53.078;18.248;2024-01-11T08:55:01;102043.28;;;2.01;100.00
38163;BME280;23977;53.078;18.248;2024-01-11T08:57:33;102040.97;;;1.76;100.00
38163;BME280;23977;53.078;18.248;2024-01-11T09:00:02;101892.88;;;1.07;100.00
38163;BME280;23977;53.078;18.248;2024-01-11T09:02:32;102005.66;;;1.64;100.00
38163;BME280;23977;53.078;18.248;2024-01-11T09:04:58;102046.66;;;2.05;100.00
38163;BME280;23977;53.078;18.248;2024-01-11T09:07:25;101946.09;;;1.47;100.00
38163;BME280;23977;53.078;18.248;2024-01-11T09:09:54;102001.47;;;1.79;100.00
38163;BME280;23977;53.078;18.248;2024-01-11T09:12:21;102027.94;;;1.94;100.00
38163;BME280;23977;53.078;18.248;2024-01-11T09:14:47;102033.03;;;1.97;100.00
38163;BME280;23977;53.078;18.248;2024-01-11T09:17:14;101959.66;;;1.38;100.00
38163;BME280;23977;53.078;18.248;2024-01-11T09:19:40;101978.59;;;1.45;100.00
38163;BME280;23977;53.078;18.248;2024-01-11T09:22:07;102058.81;;;2.25;100.00
38163;BME280;23977;53.078;18.248;2024-01-11T09:24:37;102058.59;;;2.30;100.00
38163;BME280;23977;53.078;18.248;2024-01-11T09:27:12;102059.81;;;2.22;100.00
38163;BME280;23977;53.078;18.248;2024-01-11T09:29:47;102052.94;;;2.20;100.00
38163;BME280;23977;53.078;18.248;2024-01-11T09:32:21;101997.53;;;2.07;100.00
38163;BME280;23977;53.078;18.248;2024-01-11T09:34:47;102009.56;;;1.94;100.00
38163;BME280;23977;53.078;18.248;2024-01-11T09:37:17;101930.50;;;1.44;100.00
38163;BME280;23977;53.078;18.248;2024-01-11T09:39:44;102057.53;;;2.34;100.00
38163;BME280;23977;53.078;18.248;2024-01-11T09:42:12;101952.72;;;1.93;100.00
38163;BME280;23977;53.078;18.248;2024-01-11T09:44:40;102057.84;;;2.45;100.00
38163;BME280;23977;53.078;18.248;2024-01-11T09:47:09;101930.19;;;1.70;100.00
38163;BME280;23977;53.078;18.248;2024-01-11T09:49:37;101969.41;;;2.09;100.00
38163;BME280;23977;53.078;18.248;2024-01-11T09:52:12;101922.38;;;1.87;100.00
38163;BME280;23977;53.078;18.248;2024-01-11T09:54:41;101965.94;;;2.26;100.00
38163;BME280;23977;53.078;18.248;2024-01-11T09:57:10;101943.00;;;2.12;100.00
38163;BME280;23977;53.078;18.248;2024-01-11T09:59:45;102040.00;;;2.87;100.00
38163;BME280;23977;53.078;18.248;2024-01-11T10:02:38;101903.16;;;1.87;100.00
38163;BME280;23977;53.078;18.248;2024-01-11T10:08:58;102001.75;;;2.64;100.00
38163;BME280;23977;53.078;18.248;2024-01-11T10:11:55;101965.22;;;2.42;100.00
38163;BME280;23977;53.078;18.248;2024-01-11T10:14:34;101890.88;;;1.87;100.00
38163;BME280;23977;53.078;18.248;2024-01-11T10:17:04;102040.41;;;2.79;100.00
38163;BME280;23977;53.078;18.248;2024-01-11T10:19:31;101923.47;;;2.18;100.00
38163;BME280;23977;53.078;18.248;2024-01-11T10:21:58;102024.44;;;3.00;100.00
38163;BME280;23977;53.078;18.248;2024-01-11T10:24:25;101932.81;;;2.24;100.00
38163;BME280;23977;53.078;18.248;2024-01-11T10:26:56;102035.38;;;2.92;100.00
38163;BME280;23977;53.078;18.248;2024-01-11T10:29:27;101893.56;;;2.20;100.00
38163;BME280;23977;53.078;18.248;2024-01-11T10:31:59;101952.66;;;2.64;100.00
38163;BME280;23977;53.078;18.248;2024-01-11T10:34:25;101948.44;;;2.62;100.00
38163;BME280;23977;53.078;18.248;2024-01-11T10:36:53;101934.81;;;2.36;100.00
38163;BME280;23977;53.078;18.248;2024-01-11T10:39:24;101864.88;;;2.00;100.00
38163;BME280;23977;53.078;18.248;2024-01-11T10:42:06;102013.59;;;3.06;100.00
38163;BME280;23977;53.078;18.248;2024-01-11T10:44:34;101971.28;;;2.77;100.00
38163;BME280;23977;53.078;18.248;2024-01-11T10:47:04;102012.38;;;2.95;100.00
38163;BME280;23977;53.078;18.248;2024-01-11T10:49:40;102018.19;;;3.02;100.00
38163;BME280;23977;53.078;18.248;2024-01-11T10:52:15;101954.78;;;2.91;100.00
38163;BME280;23977;53.078;18.248;2024-01-11T10:54:49;101968.03;;;2.72;100.00
38163;BME280;23977;53.078;18.248;2024-01-11T10:57:18;101918.53;;;2.29;100.00
38163;BME280;23977;53.078;18.248;2024-01-11T10:59:50;101817.28;;;1.71;100.00
38163;BME280;23977;53.078;18.248;2024-01-11T11:02:19;101937.28;;;2.56;100.00
38163;BME280;23977;53.078;18.248;2024-01-11T11:04:51;101986.47;;;3.21;100.00
38163;BME280;23977;53.078;18.248;2024-01-11T11:07:20;101919.97;;;2.70;100.00
38163;BME280;23977;53.078;18.248;2024-01-11T11:09:49;101851.69;;;2.35;100.00
38163;BME280;23977;53.078;18.248;2024-01-11T11:12:22;101915.75;;;2.83;100.00
38163;BME280;23977;53.078;18.248;2024-01-11T11:14:50;101845.50;;;2.36;100.00
38163;BME280;23977;53.078;18.248;2024-01-11T11:17:20;101974.13;;;3.23;100.00
38163;BME280;23977;53.078;18.248;2024-01-11T11:19:47;101967.16;;;3.22;100.00
38163;BME280;23977;53.078;18.248;2024-01-11T11:22:14;101904.44;;;2.81;100.00
38163;BME280;23977;53.078;18.248;2024-01-11T11:24:42;101968.44;;;3.31;100.00
38163;BME280;23977;53.078;18.248;2024-01-11T11:30:52;101846.25;;;2.55;100.00
38163;BME280;23977;53.078;18.248;2024-01-11T11:33:22;101924.34;;;3.03;100.00
38163;BME280;23977;53.078;18.248;2024-01-11T11:35:52;101938.97;;;3.24;100.00
38163;BME280;23977;53.078;18.248;2024-01-11T11:38:30;101909.84;;;2.95;100.00
38163;BME280;23977;53.078;18.248;2024-01-11T11:41:01;101839.47;;;2.67;99.07
38163;BME280;23977;53.078;18.248;2024-01-11T11:43:36;101913.66;;;2.90;100.00
38163;BME280;23977;53.078;18.248;2024-01-11T11:46:06;101874.25;;;2.72;100.00
38163;BME280;23977;53.078;18.248;2024-01-11T11:48:55;101867.41;;;2.70;100.00
38163;BME280;23977;53.078;18.248;2024-01-11T11:51:24;101960.88;;;3.25;100.00
38163;BME280;23977;53.078;18.248;2024-01-11T11:53:52;101966.06;;;2.93;100.00
38163;BME280;23977;53.078;18.248;2024-01-11T11:56:22;101925.00;;;2.90;100.00
38163;BME280;23977;53.078;18.248;2024-01-11T11:58:55;101877.00;;;2.87;100.00
38163;BME280;23977;53.078;18.248;2024-01-11T12:01:41;101910.78;;;3.26;99.98
38163;BME280;23977;53.078;18.248;2024-01-11T12:04:13;101836.94;;;2.66;100.00
38163;BME280;23977;53.078;18.248;2024-01-11T12:07:12;101810.13;;;2.59;100.00
38163;BME280;23977;53.078;18.248;2024-01-11T12:09:40;101805.78;;;2.42;100.00
38163;BME280;23977;53.078;18.248;2024-01-11T12:12:10;101944.91;;;3.12;100.00
38163;BME280;23977;53.078;18.248;2024-01-11T12:14:43;101828.88;;;2.69;99.51
38163;BME280;23977;53.078;18.248;2024-01-11T12:17:29;101799.84;;;2.54;98.72
38163;BME280;23977;53.078;18.248;2024-01-11T12:20:13;101923.78;;;3.29;100.00
38163;BME280;23977;53.078;18.248;2024-01-11T12:34:57;101789.06;;;2.43;98.80
38163;BME280;23977;53.078;18.248;2024-01-11T12:46:51;101850.88;;;2.84;98.31
38163;BME280;23977;53.078;18.248;2024-01-11T12:50:17;101933.88;;;3.21;99.21
38163;BME280;23977;53.078;18.248;2024-01-11T13:08:12;101864.66;;;2.71;100.00
38163;BME280;23977;53.078;18.248;2024-01-11T13:10:42;101940.13;;;3.03;100.00
38163;BME280;23977;53.078;18.248;2024-01-11T13:13:11;101879.81;;;2.66;100.00
38163;BME280;23977;53.078;18.248;2024-01-11T13:15:39;101953.19;;;2.88;100.00
38163;BME280;23977;53.078;18.248;2024-01-11T13:19:23;101897.50;;;2.47;100.00
38163;BME280;23977;53.078;18.248;2024-01-11T13:23:14;101767.50;;;1.70;100.00
38163;BME280;23977;53.078;18.248;2024-01-11T13:49:51;101868.25;;;2.02;100.00
38163;BME280;23977;53.078;18.248;2024-01-11T13:52:23;101863.00;;;2.02;100.00
38163;BME280;23977;53.078;18.248;2024-01-11T14:03:43;101942.38;;;2.93;100.00
38163;BME280;23977;53.078;18.248;2024-01-11T14:06:54;101765.25;;;1.97;100.00
38163;BME280;23977;53.078;18.248;2024-01-11T14:09:45;101874.25;;;2.72;100.00
38163;BME280;23977;53.078;18.248;2024-01-11T14:12:29;101885.78;;;2.70;100.00
38163;BME280;23977;53.078;18.248;2024-01-11T14:14:57;101827.19;;;2.34;100.00
38163;BME280;23977;53.078;18.248;2024-01-11T14:17:26;101741.31;;;1.85;100.00
38163;BME280;23977;53.078;18.248;2024-01-11T14:19:56;101857.97;;;2.66;100.00
38163;BME280;23977;53.078;18.248;2024-01-11T14:22:23;101815.25;;;2.11;100.00
38163;BME280;23977;53.078;18.248;2024-01-11T14:24:53;101864.03;;;2.50;100.00
38163;BME280;23977;53.078;18.248;2024-01-11T14:27:22;101805.78;;;2.09;100.00
38163;BME280;23977;53.078;18.248;2024-01-11T14:29:50;101831.22;;;2.24;100.00
38163;BME280;23977;53.078;18.248;2024-01-11T14:32:17;101905.91;;;2.53;100.00
38163;BME280;23977;53.078;18.248;2024-01-11T14:34:49;101925.84;;;2.57;100.00
38163;BME280;23977;53.078;18.248;2024-01-11T14:37:21;101815.13;;;1.62;100.00
38163;BME280;23977;53.078;18.248;2024-01-11T14:40:09;101853.97;;;1.90;100.00
38163;BME280;23977;53.078;18.248;2024-01-11T14:42:45;101821.47;;;1.75;100.00
38163;BME280;23977;53.078;18.248;2024-01-11T14:45:12;101897.50;;;1.94;100.00
38163;BME280;23977;53.078;18.248;2024-01-11T14:47:40;101969.06;;;2.52;100.00
38163;BME280;23977;53.078;18.248;2024-01-11T14:50:07;101866.31;;;2.06;100.00
38163;BME280;23977;53.078;18.248;2024-01-11T14:52:35;101856.03;;;2.01;100.00
38163;BME280;23977;53.078;18.248;2024-01-11T14:55:03;101943.41;;;2.57;100.00
38163;BME280;23977;53.078;18.248;2024-01-11T14:57:31;101917.88;;;1.89;100.00
38163;BME280;23977;53.078;18.248;2024-01-11T15:00:14;101985.22;;;2.27;100.00
38163;BME280;23977;53.078;18.248;2024-01-11T15:02:44;101985.06;;;2.47;100.00
38163;BME280;23977;53.078;18.248;2024-01-11T15:05:35;101995.25;;;2.53;100.00
38163;BME280;23977;53.078;18.248;2024-01-11T15:08:06;102004.22;;;2.49;100.00
38163;BME280;23977;53.078;18.248;2024-01-11T15:10:34;101887.09;;;2.10;100.00
38163;BME280;23977;53.078;18.248;2024-01-11T15:13:05;101954.13;;;2.52;100.00
38163;BME280;23977;53.078;18.248;2024-01-11T15:15:32;101959.63;;;2.30;100.00
38163;BME280;23977;53.078;18.248;2024-01-11T15:18:00;101958.00;;;2.45;100.00
38163;BME280;23977;53.078;18.248;2024-01-11T15:20:27;102014.28;;;2.58;100.00
38163;BME280;23977;53.078;18.248;2024-01-11T15:22:55;102005.16;;;2.66;100.00
38163;BME280;23977;53.078;18.248;2024-01-11T15:25:22;101897.84;;;1.69;100.00
38163;BME280;23977;53.078;18.248;2024-01-11T15:27:54;101999.44;;;2.57;100.00
38163;BME280;23977;53.078;18.248;2024-01-11T15:30:21;101843.53;;;1.89;100.00
38163;BME280;23977;53.078;18.248;2024-01-11T15:32:51;101911.94;;;2.03;100.00
38163;BME280;23977;53.078;18.248;2024-01-11T15:35:19;101897.75;;;2.07;100.00
38163;BME280;23977;53.078;18.248;2024-01-11T15:38:00;101950.44;;;2.39;100.00
38163;BME280;23977;53.078;18.248;2024-01-11T15:40:27;101839.22;;;1.88;100.00
38163;BME280;23977;53.078;18.248;2024-01-11T15:42:54;101883.69;;;2.08;100.00
38163;BME280;23977;53.078;18.248;2024-01-11T15:45:22;101844.16;;;1.94;100.00
38163;BME280;23977;53.078;18.248;2024-01-11T15:47:50;101960.69;;;2.61;100.00
38163;BME280;23977;53.078;18.248;2024-01-11T15:50:19;101951.66;;;2.14;100.00
38163;BME280;23977;53.078;18.248;2024-01-11T15:52:46;101953.75;;;2.60;100.00
38163;BME280;23977;53.078;18.248;2024-01-11T15:55:37;101921.69;;;2.36;100.00
38163;BME280;23977;53.078;18.248;2024-01-11T15:58:08;101932.34;;;2.15;100.00
38163;BME280;23977;53.078;18.248;2024-01-11T16:00:36;102006.06;;;2.65;100.00
38163;BME280;23977;53.078;18.248;2024-01-11T16:03:04;101909.53;;;1.81;100.00
38163;BME280;23977;53.078;18.248;2024-01-11T16:05:33;101913.00;;;1.81;100.00
38163;BME280;23977;53.078;18.248;2024-01-11T16:08:00;101921.06;;;1.96;100.00
38163;BME280;23977;53.078;18.248;2024-01-11T16:10:28;101954.56;;;2.08;100.00
38163;BME280;23977;53.078;18.248;2024-01-11T16:12:56;101896.66;;;1.94;100.00
38163;BME280;23977;53.078;18.248;2024-01-11T16:15:23;101902.06;;;1.91;100.00
38163;BME280;23977;53.078;18.248;2024-01-11T16:17:50;101885.66;;;1.68;100.00
38163;BME280;23977;53.078;18.248;2024-01-11T16:20:34;102045.19;;;2.53;100.00
38163;BME280;23977;53.078;18.248;2024-01-11T16:23:07;101874.38;;;1.48;100.00
38163;BME280;23977;53.078;18.248;2024-01-11T16:25:51;102011.63;;;2.41;100.00
38163;BME280;23977;53.078;18.248;2024-01-11T16:28:18;101972.31;;;2.22;100.00
38163;BME280;23977;53.078;18.248;2024-01-11T16:30:45;102011.19;;;2.50;100.00
38163;BME280;23977;53.078;18.248;2024-01-11T16:33:12;101992.84;;;1.95;100.00
38163;BME280;23977;53.078;18.248;2024-01-11T16:35:54;101935.13;;;1.58;100.00
38163;BME280;23977;53.078;18.248;2024-01-11T16:38:22;102030.28;;;2.17;100.00
38163;BME280;23977;53.078;18.248;2024-01-11T16:40:48;102019.03;;;2.15;100.00
38163;BME280;23977;53.078;18.248;2024-01-11T16:43:19;101868.00;;;1.16;100.00
38163;BME280;23977;53.078;18.248;2024-01-11T16:45:45;102039.41;;;2.10;100.00
38163;BME280;23977;53.078;18.248;2024-01-11T16:48:19;102077.63;;;2.35;100.00
38163;BME280;23977;53.078;18.248;2024-01-11T16:50:47;102078.81;;;2.28;100.00
38163;BME280;23977;53.078;18.248;2024-01-11T16:53:34;102063.66;;;2.15;100.00
38163;BME280;23977;53.078;18.248;2024-01-11T16:56:25;101948.22;;;1.39;100.00
38163;BME280;23977;53.078;18.248;2024-01-11T16:58:56;101997.44;;;1.72;100.00
38163;BME280;23977;53.078;18.248;2024-01-11T17:01:24;102037.34;;;1.98;100.00
38163;BME280;23977;53.078;18.248;2024-01-11T17:07:55;102042.56;;;1.80;100.00
38163;BME280;23977;53.078;18.248;2024-01-11T17:10:49;102028.06;;;1.53;100.00
38163;BME280;23977;53.078;18.248;2024-01-11T17:13:23;102108.38;;;1.95;100.00
38163;BME280;23977;53.078;18.248;2024-01-11T17:15:50;102101.31;;;1.97;100.00
38163;BME280;23977;53.078;18.248;2024-01-11T17:18:55;102018.06;;;1.61;100.00
38163;BME280;23977;53.078;18.248;2024-01-11T17:21:28;102108.03;;;2.02;100.00
38163;BME280;23977;53.078;18.248;2024-01-11T17:24:05;102062.34;;;1.69;100.00
38163;BME280;23977;53.078;18.248;2024-01-11T17:29:59;101969.31;;;0.98;100.00
38163;BME280;23977;53.078;18.248;2024-01-11T17:32:30;102066.25;;;1.79;100.00
38163;BME280;23977;53.078;18.248;2024-01-11T17:35:01;101971.72;;;1.03;100.00
38163;BME280;23977;53.078;18.248;2024-01-11T17:37:31;102063.50;;;1.42;100.00
38163;BME280;23977;53.078;18.248;2024-01-11T17:40:01;102030.75;;;1.32;100.00
38163;BME280;23977;53.078;18.248;2024-01-11T17:42:34;102104.03;;;1.56;100.00
38163;BME280;23977;53.078;18.248;2024-01-11T17:45:09;102062.75;;;1.20;100.00
38163;BME280;23977;53.078;18.248;2024-01-11T17:47:41;101996.75;;;0.70;100.00
38163;BME280;23977;53.078;18.248;2024-01-11T17:50:18;102110.00;;;1.18;100.00
38163;BME280;23977;53.078;18.248;2024-01-11T17:53:20;102038.53;;;0.73;100.00
38163;BME280;23977;53.078;18.248;2024-01-11T17:55:50;101998.19;;;0.35;100.00
38163;BME280;23977;53.078;18.248;2024-01-11T17:58:30;101988.84;;;0.29;100.00